Time;durP1;ratioP1;P1;durP2;ratioP2;P2;SDS_P1;SDS_P2;PMS_P1;PMS_P2;Temp;Humidity;BMP_temperature;BMP_pressure;BME280_temperature;BME280_humidity;BME280_pressure;Samples;Min_cycle;Max_cycle;Signal;HPM_P1;HPM_P2
2024/03/11 00:01:02;;;;;;;10.05;2.92;;;;;;;;;;5010380;28;20057;-68
2024/03/11 00:03:28;;;;;;;9.40;3.60;;;;;;;;;;5011368;28;20030;-67
2024/03/11 00:05:55;;;;;;;13.82;3.65;;;;;;;;;;5011045;28;20022;-67
2024/03/11 00:08:21;;;;;;;10.95;4.00;;;;;;;;;;5010734;28;20018;-67
2024/03/11 00:10:49;;;;;;;15.98;3.63;;;;;;;;;;5010387;28;20117;-66
2024/03/11 00:13:17;;;;;;;9.75;3.50;;;;;;;;;;5010444;28;20057;-66
2024/03/11 00:15:44;;;;;;;8.90;3.65;;;;;;;;;;5011125;28;20071;-67
2024/03/11 00:18:10;;;;;;;8.88;3.22;;;;;;;;;;5010775;28;20049;-67
2024/03/11 00:20:36;;;;;;;8.25;3.22;;;;;;;;;;5010162;28;20616;-66
2024/03/11 00:23:03;;;;;;;6.95;3.15;;;;;;;;;;5010424;28;20033;-67
2024/03/11 00:25:30;;;;;;;8.60;3.47;;;;;;;;;;5013755;28;20052;-66
2024/03/11 00:27:57;;;;;;;9.02;3.47;;;;;;;;;;4996789;28;20378;-67
2024/03/11 00:30:23;;;;;;;8.27;2.90;;;;;;;;;;5013937;28;20037;-66
2024/03/11 00:32:52;;;;;;;6.68;3.35;;;;;;;;;;5013784;28;20054;-66
2024/03/11 00:35:18;;;;;;;6.97;2.92;;;;;;;;;;4996540;28;20030;-64
2024/03/11 00:37:45;;;;;;;5.93;2.90;;;;;;;;;;5014307;28;20022;-66
2024/03/11 00:40:13;;;;;;;7.53;2.80;;;;;;;;;;5013655;28;20511;-66
2024/03/11 00:42:39;;;;;;;8.15;3.92;;;;;;;;;;5013186;28;20041;-67
2024/03/11 00:45:11;;;;;;;7.05;3.10;;;;;;;;;;5015145;28;20532;-67
2024/03/11 00:47:41;;;;;;;6.80;2.97;;;;;;;;;;5015920;28;20018;-67
2024/03/11 00:50:08;;;;;;;4.88;2.78;;;;;;;;;;5014283;28;20037;-68
2024/03/11 00:52:34;;;;;;;12.40;3.30;;;;;;;;;;5013082;28;20030;-67
2024/03/11 00:55:00;;;;;;;10.70;3.40;;;;;;;;;;5013947;28;20464;-68
2024/03/11 00:57:27;;;;;;;5.35;2.90;;;;;;;;;;5013615;28;20050;-67
2024/03/11 00:59:54;;;;;;;12.30;3.45;;;;;;;;;;5013567;28;20033;-67
2024/03/11 01:02:22;;;;;;;6.32;3.10;;;;;;;;;;5012984;28;20030;-67
2024/03/11 01:04:48;;;;;;;5.88;3.03;;;;;;;;;;5013600;28;20026;-67
2024/03/11 01:07:14;;;;;;;4.68;3.10;;;;;;;;;;5013584;28;20029;-67
2024/03/11 01:09:40;;;;;;;8.75;3.08;;;;;;;;;;5013187;28;20029;-67
2024/03/11 01:12:06;;;;;;;6.28;2.58;;;;;;;;;;5012106;28;20108;-66
2024/03/11 01:14:32;;;;;;;8.55;3.05;;;;;;;;;;5012426;28;20431;-68
2024/03/11 01:16:58;;;;;;;6.03;3.15;;;;;;;;;;5011808;28;20054;-67
2024/03/11 01:19:27;;;;;;;5.28;2.90;;;;;;;;;;5011793;28;20068;-67
2024/03/11 01:21:53;;;;;;;7.22;3.25;;;;;;;;;;5010981;28;20022;-67
2024/03/11 01:24:20;;;;;;;10.00;2.90;;;;;;;;;;5011692;28;20504;-65
2024/03/11 01:26:47;;;;;;;5.50;2.90;;;;;;;;;;5011863;28;20028;-66
2024/03/11 01:29:15;;;;;;;8.93;3.05;;;;;;;;;;5011643;28;20029;-66
2024/03/11 01:31:41;;;;;;;8.90;3.35;;;;;;;;;;5010869;28;20034;-68
2024/03/11 01:34:08;;;;;;;8.27;2.90;;;;;;;;;;5011385;28;20049;-66
2024/03/11 01:36:36;;;;;;;12.15;4.15;;;;;;;;;;5011100;28;20121;-67
2024/03/11 01:39:04;;;;;;;9.15;3.20;;;;;;;;;;5036518;23;20673;-65
2024/03/11 01:41:30;;;;;;;8.05;2.90;;;;;;;;;;5033764;28;20025;-66
2024/03/11 01:43:56;;;;;;;8.20;2.75;;;;;;;;;;5032749;28;20032;-64
2024/03/11 01:46:23;;;;;;;5.20;2.55;;;;;;;;;;5032630;28;20029;-64
2024/03/11 01:48:49;;;;;;;21.00;2.97;;;;;;;;;;5027372;28;20490;-63
2024/03/11 01:51:17;;;;;;;7.72;2.83;;;;;;;;;;5012002;28;20579;-63
2024/03/11 01:53:43;;;;;;;7.30;3.40;;;;;;;;;;5012583;28;20514;-65
2024/03/11 01:56:09;;;;;;;9.30;3.55;;;;;;;;;;5012497;28;20033;-64
2024/03/11 01:58:40;;;;;;;5.82;2.63;;;;;;;;;;5012577;28;20028;-64
2024/03/11 02:01:07;;;;;;;5.20;2.53;;;;;;;;;;5013955;28;20025;-63
2024/03/11 02:03:33;;;;;;;9.85;3.00;;;;;;;;;;5013825;28;20045;-63
2024/03/11 02:05:59;;;;;;;7.97;3.28;;;;;;;;;;5012709;28;20398;-64
2024/03/11 02:08:25;;;;;;;6.72;2.97;;;;;;;;;;5012578;28;20018;-62
2024/03/11 02:10:51;;;;;;;6.32;3.30;;;;;;;;;;5012043;28;20032;-63
2024/03/11 02:13:20;;;;;;;8.93;2.53;;;;;;;;;;5012381;28;20018;-64
2024/03/11 02:15:47;;;;;;;7.68;2.97;;;;;;;;;;5012314;28;20033;-64
2024/03/11 02:18:13;;;;;;;5.30;2.50;;;;;;;;;;5012086;28;20629;-63
2024/03/11 02:20:41;;;;;;;6.55;2.42;;;;;;;;;;5011698;28;20116;-65
2024/03/11 02:23:07;;;;;;;5.10;3.00;;;;;;;;;;5012096;28;20030;-64
2024/03/11 02:25:33;;;;;;;16.73;2.78;;;;;;;;;;5012304;28;20065;-65
2024/03/11 02:28:00;;;;;;;7.07;2.53;;;;;;;;;;5012172;28;20497;-64
2024/03/11 02:30:27;;;;;;;4.07;2.65;;;;;;;;;;5011507;28;20049;-63
2024/03/11 02:32:53;;;;;;;5.75;2.90;;;;;;;;;;5011730;28;20026;-64
2024/03/11 02:35:20;;;;;;;5.53;2.45;;;;;;;;;;5012105;28;20030;-63
2024/03/11 02:37:46;;;;;;;6.95;3.08;;;;;;;;;;5012044;28;20033;-64
2024/03/11 02:40:13;;;;;;;6.60;3.03;;;;;;;;;;5011161;28;20044;-64
2024/03/11 02:42:42;;;;;;;3.80;2.40;;;;;;;;;;5011370;28;20018;-63
2024/03/11 02:45:09;;;;;;;4.40;2.40;;;;;;;;;;5011854;28;20505;-66
2024/03/11 02:47:36;;;;;;;4.18;2.17;;;;;;;;;;5010792;28;20026;-65
2024/03/11 02:50:05;;;;;;;5.70;2.38;;;;;;;;;;5016596;28;20030;-66
2024/03/11 02:52:32;;;;;;;6.10;2.50;;;;;;;;;;5011180;28;20037;-66
2024/03/11 02:54:58;;;;;;;3.40;2.08;;;;;;;;;;5011816;28;20033;-64
2024/03/11 02:57:24;;;;;;;4.05;2.25;;;;;;;;;;5011389;28;20026;-63
2024/03/11 02:59:50;;;;;;;4.80;2.42;;;;;;;;;;5011453;28;20087;-62
2024/03/11 03:02:16;;;;;;;5.03;2.58;;;;;;;;;;5014995;28;20033;-63
2024/03/11 03:04:42;;;;;;;8.60;2.88;;;;;;;;;;5011488;28;20056;-65
2024/03/11 03:07:12;;;;;;;6.55;2.55;;;;;;;;;;5011596;28;20497;-64
2024/03/11 03:09:38;;;;;;;5.10;2.92;;;;;;;;;;5011832;28;20603;-65
2024/03/11 03:12:05;;;;;;;4.38;2.22;;;;;;;;;;5010540;28;20022;-64
2024/03/11 03:14:30;;;;;;;4.63;2.42;;;;;;;;;;5011350;28;20084;-65
2024/03/11 03:16:57;;;;;;;6.07;2.35;;;;;;;;;;5011228;28;20026;-65
2024/03/11 03:19:23;;;;;;;5.80;2.70;;;;;;;;;;5010941;28;20104;-64
2024/03/11 03:21:49;;;;;;;6.00;2.40;;;;;;;;;;5014922;28;20108;-64
2024/03/11 03:24:16;;;;;;;6.05;2.90;;;;;;;;;;5020282;28;20021;-64
2024/03/11 03:26:43;;;;;;;4.07;2.65;;;;;;;;;;5023303;28;20033;-64
2024/03/11 03:29:11;;;;;;;3.78;2.30;;;;;;;;;;5013544;28;20037;-64
2024/03/11 03:31:37;;;;;;;10.60;2.08;;;;;;;;;;5012583;28;20112;-64
2024/03/11 03:34:06;;;;;;;5.85;2.17;;;;;;;;;;5019888;28;20041;-64
2024/03/11 03:36:32;;;;;;;4.25;2.33;;;;;;;;;;5017117;28;20105;-63
2024/03/11 03:38:58;;;;;;;5.68;2.75;;;;;;;;;;5016151;28;20226;-68
2024/03/11 03:41:24;;;;;;;7.68;3.00;;;;;;;;;;5028971;28;20359;-64
2024/03/11 03:43:50;;;;;;;7.03;2.63;;;;;;;;;;5013450;28;20041;-65
2024/03/11 03:46:20;;;;;;;6.15;2.85;;;;;;;;;;5010819;28;20394;-64
2024/03/11 03:48:48;;;;;;;6.78;2.53;;;;;;;;;;5018905;28;20049;-63
2024/03/11 03:51:15;;;;;;;3.22;2.55;;;;;;;;;;5020496;28;20033;-65
2024/03/11 03:53:41;;;;;;;5.70;2.20;;;;;;;;;;5027266;28;20107;-64
2024/03/11 03:56:07;;;;;;;3.85;2.42;;;;;;;;;;5014670;28;20030;-65
2024/03/11 03:58:36;;;;;;;2.63;1.83;;;;;;;;;;5016551;28;20033;-64
2024/03/11 04:01:02;;;;;;;5.00;2.45;;;;;;;;;;5013244;28;20434;-65
2024/03/11 04:03:28;;;;;;;4.78;2.33;;;;;;;;;;5015069;28;20053;-64
2024/03/11 04:05:54;;;;;;;4.30;2.15;;;;;;;;;;5019448;28;20026;-65
2024/03/11 04:08:20;;;;;;;4.68;2.35;;;;;;;;;;5018288;28;20022;-63
2024/03/11 04:10:47;;;;;;;6.03;2.47;;;;;;;;;;5021295;28;20109;-64
2024/03/11 04:13:13;;;;;;;5.47;1.92;;;;;;;;;;5029436;28;20489;-65
2024/03/11 04:15:42;;;;;;;6.13;2.40;;;;;;;;;;5031511;28;20052;-65
2024/03/11 04:18:10;;;;;;;5.18;2.40;;;;;;;;;;5021170;28;20029;-64
2024/03/11 04:20:37;;;;;;;5.03;2.65;;;;;;;;;;5022256;28;20021;-65
2024/03/11 04:23:07;;;;;;;3.15;1.80;;;;;;;;;;5013679;28;20033;-64
2024/03/11 04:25:37;;;;;;;3.65;2.40;;;;;;;;;;5022417;28;20478;-65
2024/03/11 04:28:03;;;;;;;9.32;2.17;;;;;;;;;;5015282;28;20038;-66
2024/03/11 04:30:30;;;;;;;3.47;2.10;;;;;;;;;;5032950;28;20018;-65
2024/03/11 04:32:58;;;;;;;4.47;2.20;;;;;;;;;;5041461;28;20026;-66
2024/03/11 04:35:27;;;;;;;4.88;1.95;;;;;;;;;;5016645;28;20022;-65
2024/03/11 04:37:58;;;;;;;3.08;1.95;;;;;;;;;;5014205;28;20025;-65
2024/03/11 04:40:25;;;;;;;4.47;2.28;;;;;;;;;;5013570;28;20025;-64
2024/03/11 04:42:51;;;;;;;4.20;2.03;;;;;;;;;;5013446;28;20068;-65
2024/03/11 04:45:17;;;;;;;10.05;2.35;;;;;;;;;;5013899;28;20494;-66
2024/03/11 04:47:44;;;;;;;6.18;2.50;;;;;;;;;;5013807;28;20018;-64
2024/03/11 04:50:14;;;;;;;4.63;2.50;;;;;;;;;;5013670;28;20022;-65
2024/03/11 04:52:40;;;;;;;7.00;2.53;;;;;;;;;;5021319;28;20113;-64
2024/03/11 04:55:06;;;;;;;13.57;2.70;;;;;;;;;;5020109;28;20128;-65
2024/03/11 04:57:35;;;;;;;9.85;3.00;;;;;;;;;;5015426;28;20022;-64
2024/03/11 05:00:04;;;;;;;9.25;2.10;;;;;;;;;;5013331;28;20018;-65
2024/03/11 05:02:35;;;;;;;4.75;2.15;;;;;;;;;;5021053;28;20021;-65
2024/03/11 05:05:01;;;;;;;6.88;2.38;;;;;;;;;;5021849;28;20072;-64
2024/03/11 05:07:27;;;;;;;8.38;2.63;;;;;;;;;;5021533;28;20033;-66
2024/03/11 05:09:54;;;;;;;6.93;2.85;;;;;;;;;;5013170;28;20030;-66
2024/03/11 05:12:20;;;;;;;11.98;3.45;;;;;;;;;;5012859;28;20014;-65
2024/03/11 05:14:46;;;;;;;6.90;2.50;;;;;;;;;;5029517;28;20133;-66
2024/03/11 05:17:12;;;;;;;8.25;2.88;;;;;;;;;;5014790;28;20527;-68
2024/03/11 05:19:38;;;;;;;8.73;3.28;;;;;;;;;;5013883;28;20071;-65
2024/03/11 05:22:04;;;;;;;9.98;2.90;;;;;;;;;;5012543;28;20022;-66
2024/03/11 05:24:30;;;;;;;13.13;3.50;;;;;;;;;;5014666;28;20018;-66
2024/03/11 05:26:56;;;;;;;11.73;2.92;;;;;;;;;;5019611;28;20014;-66
2024/03/11 05:29:22;;;;;;;11.90;2.70;;;;;;;;;;5012864;28;20070;-65
2024/03/11 05:31:48;;;;;;;10.93;2.22;;;;;;;;;;5014755;28;20363;-66
2024/03/11 05:34:15;;;;;;;8.50;2.85;;;;;;;;;;5013098;28;20053;-66
2024/03/11 05:36:41;;;;;;;7.28;2.83;;;;;;;;;;5024012;28;20023;-66
2024/03/11 05:39:09;;;;;;;8.13;2.70;;;;;;;;;;5025831;28;20038;-65
2024/03/11 05:41:35;;;;;;;11.95;2.70;;;;;;;;;;5014124;28;20014;-69
2024/03/11 05:44:03;;;;;;;8.82;2.70;;;;;;;;;;5018741;28;20025;-64
2024/03/11 05:46:29;;;;;;;7.03;2.47;;;;;;;;;;5021840;28;20508;-64
2024/03/11 05:48:55;;;;;;;48.53;4.78;;;;;;;;;;5012934;28;20022;-64
2024/03/11 05:51:21;;;;;;;26.13;6.97;;;;;;;;;;5011855;28;20065;-65
2024/03/11 05:53:52;;;;;;;13.55;3.30;;;;;;;;;;5012802;28;20026;-66
2024/03/11 05:56:22;;;;;;;15.93;3.85;;;;;;;;;;5012592;28;20037;-65
2024/03/11 05:58:48;;;;;;;22.50;12.68;;;;;;;;;;5012394;28;20116;-65
2024/03/11 06:01:14;;;;;;;18.67;13.43;;;;;;;;;;5019273;28;20029;-65
2024/03/11 06:03:40;;;;;;;18.30;13.77;;;;;;;;;;5012881;28;20108;-63
2024/03/11 06:06:07;;;;;;;17.55;14.05;;;;;;;;;;5012521;28;20022;-63
2024/03/11 06:08:33;;;;;;;27.23;13.90;;;;;;;;;;5012724;28;20706;-64
2024/03/11 06:10:59;;;;;;;17.80;11.88;;;;;;;;;;5011409;28;20064;-66
2024/03/11 06:13:25;;;;;;;19.30;7.57;;;;;;;;;;5012159;28;20025;-64
2024/03/11 06:15:51;;;;;;;20.70;8.65;;;;;;;;;;5012231;28;20092;-64
2024/03/11 06:18:17;;;;;;;20.48;8.15;;;;;;;;;;5011847;28;20494;-64
2024/03/11 06:20:43;;;;;;;27.35;8.65;;;;;;;;;;5011349;28;20044;-66
2024/03/11 06:23:09;;;;;;;22.05;9.20;;;;;;;;;;5011488;28;20100;-67
2024/03/11 06:25:35;;;;;;;24.70;10.00;;;;;;;;;;5011885;28;20022;-68
2024/03/11 06:28:04;;;;;;;21.83;8.30;;;;;;;;;;5011746;28;20022;-67
2024/03/11 06:30:30;;;;;;;22.60;7.30;;;;;;;;;;5011744;28;20030;-68
2024/03/11 06:32:56;;;;;;;23.55;7.47;;;;;;;;;;5013849;28;20053;-67
2024/03/11 06:35:22;;;;;;;27.35;8.55;;;;;;;;;;5019783;28;20034;-68
2024/03/11 06:37:48;;;;;;;17.98;7.60;;;;;;;;;;5011802;28;20025;-68
2024/03/11 06:40:17;;;;;;;21.88;6.65;;;;;;;;;;5010911;28;20047;-67
2024/03/11 06:42:44;;;;;;;21.83;7.03;;;;;;;;;;5014132;28;20131;-67
2024/03/11 06:45:10;;;;;;;16.55;6.43;;;;;;;;;;5016199;28;20032;-67
2024/03/11 06:47:36;;;;;;;17.08;5.53;;;;;;;;;;5011514;28;20018;-67
2024/03/11 06:50:06;;;;;;;13.55;5.63;;;;;;;;;;5011439;28;20555;-67
2024/03/11 06:52:33;;;;;;;22.83;6.60;;;;;;;;;;5010958;28;20056;-66
2024/03/11 06:54:59;;;;;;;27.85;5.90;;;;;;;;;;4993646;28;20493;-65
2024/03/11 06:57:25;;;;;;;17.05;5.65;;;;;;;;;;5011337;28;20033;-67
2024/03/11 06:59:51;;;;;;;22.52;6.80;;;;;;;;;;5010602;28;20113;-67
2024/03/11 07:02:20;;;;;;;13.77;5.85;;;;;;;;;;5014009;28;20109;-68
2024/03/11 07:04:47;;;;;;;16.85;6.30;;;;;;;;;;5011441;28;20021;-68
2024/03/11 07:07:13;;;;;;;15.93;6.78;;;;;;;;;;5010964;28;20030;-67
2024/03/11 07:09:39;;;;;;;15.35;5.80;;;;;;;;;;5019643;28;20029;-68
2024/03/11 07:12:05;;;;;;;18.38;5.90;;;;;;;;;;5022681;28;20017;-68
2024/03/11 07:14:31;;;;;;;16.20;5.32;;;;;;;;;;5040808;28;20021;-67
2024/03/11 07:16:57;;;;;;;11.55;4.85;;;;;;;;;;5037096;28;20025;-67
2024/03/11 07:19:25;;;;;;;13.85;4.88;;;;;;;;;;5035367;28;20392;-67
2024/03/11 07:21:51;;;;;;;10.93;4.88;;;;;;;;;;5041107;28;20054;-66
2024/03/11 07:24:19;;;;;;;14.68;4.95;;;;;;;;;;5050082;28;20036;-67
2024/03/11 07:26:45;;;;;;;15.27;5.30;;;;;;;;;;5050113;28;20029;-67
2024/03/11 07:29:11;;;;;;;19.83;5.78;;;;;;;;;;5049747;28;20147;-66
2024/03/11 07:31:38;;;;;;;12.73;5.30;;;;;;;;;;5049546;28;20060;-67
2024/03/11 07:34:04;;;;;;;16.70;5.60;;;;;;;;;;5049965;28;20021;-67
2024/03/11 07:36:30;;;;;;;16.23;5.63;;;;;;;;;;5050128;28;20048;-66
2024/03/11 07:38:56;;;;;;;16.42;6.20;;;;;;;;;;5050758;28;20388;-66
2024/03/11 07:41:26;;;;;;;16.45;6.00;;;;;;;;;;5049568;28;20021;-67
2024/03/11 07:43:52;;;;;;;21.33;6.05;;;;;;;;;;5050588;28;20029;-67
2024/03/11 07:46:18;;;;;;;23.67;5.88;;;;;;;;;;5054389;28;20491;-67
2024/03/11 07:48:46;;;;;;;14.20;4.95;;;;;;;;;;5054982;28;20056;-67
2024/03/11 07:51:13;;;;;;;15.23;5.75;;;;;;;;;;5054586;28;20029;-68
2024/03/11 07:53:39;;;;;;;14.63;5.55;;;;;;;;;;5051646;28;20477;-67
2024/03/11 07:56:05;;;;;;;15.13;6.05;;;;;;;;;;5050252;28;20063;-67
2024/03/11 07:58:34;;;;;;;16.65;5.28;;;;;;;;;;5049922;28;20427;-66
2024/03/11 08:01:01;;;;;;;12.75;5.50;;;;;;;;;;5049120;28;20021;-66
2024/03/11 08:03:27;;;;;;;15.30;4.65;;;;;;;;;;5050166;28;20025;-67
2024/03/11 08:05:55;;;;;;;16.90;5.60;;;;;;;;;;5050046;28;20024;-67
2024/03/11 08:08:23;;;;;;;12.60;5.32;;;;;;;;;;5032426;28;20028;-67
2024/03/11 08:10:50;;;;;;;16.27;5.82;;;;;;;;;;5049546;28;20096;-67
2024/03/11 08:13:17;;;;;;;8.23;4.35;;;;;;;;;;5049986;28;20055;-67
2024/03/11 08:15:43;;;;;;;17.67;5.63;;;;;;;;;;5050045;28;20033;-67
2024/03/11 08:18:09;;;;;;;9.80;5.35;;;;;;;;;;5049731;28;20021;-67
2024/03/11 08:20:35;;;;;;;13.32;5.00;;;;;;;;;;5049757;28;20056;-67
2024/03/11 08:23:01;;;;;;;13.30;5.43;;;;;;;;;;5049843;28;20425;-67
2024/03/11 08:25:31;;;;;;;10.18;5.63;;;;;;;;;;5049818;28;20109;-67
2024/03/11 08:27:57;;;;;;;13.10;5.03;;;;;;;;;;5050031;28;20025;-67
2024/03/11 08:30:30;;;;;;;11.27;4.93;;;;;;;;;;5049601;28;20489;-67
2024/03/11 08:32:56;;;;;;;11.55;5.05;;;;;;;;;;5049756;28;20066;-67
2024/03/11 08:35:26;;;;;;;13.25;4.70;;;;;;;;;;5049820;28;20057;-67
2024/03/11 08:37:52;;;;;;;8.93;4.75;;;;;;;;;;5049851;28;20079;-68
2024/03/11 08:40:19;;;;;;;12.18;4.82;;;;;;;;;;5049351;28;20037;-68
2024/03/11 08:42:45;;;;;;;11.82;4.85;;;;;;;;;;5049423;28;20036;-68
2024/03/11 08:45:12;;;;;;;12.32;4.80;;;;;;;;;;5050929;28;20024;-68
2024/03/11 08:47:41;;;;;;;10.90;5.05;;;;;;;;;;5053296;28;20484;-66
2024/03/11 08:50:08;;;;;;;10.48;4.78;;;;;;;;;;5053124;28;20447;-66
2024/03/11 08:52:35;;;;;;;10.63;4.65;;;;;;;;;;5052777;28;20068;-66
2024/03/11 08:55:05;;;;;;;10.25;4.03;;;;;;;;;;5035534;28;20090;-67
2024/03/11 08:57:31;;;;;;;10.98;4.68;;;;;;;;;;5036091;28;20017;-67
2024/03/11 08:59:57;;;;;;;10.00;4.22;;;;;;;;;;5052749;28;20028;-67
2024/03/11 09:02:23;;;;;;;14.02;4.97;;;;;;;;;;5052582;28;20025;-67
2024/03/11 09:04:49;;;;;;;13.07;4.82;;;;;;;;;;5053480;28;20104;-67
2024/03/11 09:07:15;;;;;;;10.35;4.60;;;;;;;;;;5053515;28;20025;-67
2024/03/11 09:09:41;;;;;;;8.63;4.32;;;;;;;;;;5053290;28;20025;-67
2024/03/11 09:12:09;;;;;;;8.10;3.90;;;;;;;;;;5052140;28;20104;-68
2024/03/11 09:14:35;;;;;;;8.73;5.03;;;;;;;;;;5052976;28;20053;-68
2024/03/11 09:17:01;;;;;;;8.02;4.10;;;;;;;;;;5053282;28;20100;-68
2024/03/11 09:19:31;;;;;;;7.38;4.20;;;;;;;;;;5052831;28;20049;-68
2024/03/11 09:21:57;;;;;;;9.23;3.88;;;;;;;;;;5052309;28;20487;-68
2024/03/11 09:24:24;;;;;;;9.85;4.72;;;;;;;;;;5052946;28;20020;-68
2024/03/11 09:26:50;;;;;;;8.07;4.35;;;;;;;;;;5052851;28;20021;-68
2024/03/11 09:29:17;;;;;;;7.10;4.55;;;;;;;;;;5052429;28;20029;-68
2024/03/11 09:31:43;;;;;;;8.23;4.60;;;;;;;;;;5052072;28;20112;-68
2024/03/11 09:34:09;;;;;;;13.52;4.75;;;;;;;;;;5052921;28;20029;-68
2024/03/11 09:36:38;;;;;;;8.50;4.15;;;;;;;;;;5052795;28;20519;-68
2024/03/11 09:39:05;;;;;;;8.05;4.20;;;;;;;;;;5052472;28;20032;-67
2024/03/11 09:41:39;;;;;;;7.60;3.83;;;;;;;;;;5051668;28;20500;-67
2024/03/11 09:44:05;;;;;;;8.20;3.88;;;;;;;;;;5053068;28;20028;-67
2024/03/11 09:46:31;;;;;;;12.57;3.90;;;;;;;;;;5052680;28;20017;-67
2024/03/11 09:48:57;;;;;;;8.75;3.97;;;;;;;;;;5052397;28;20401;-67
2024/03/11 09:51:24;;;;;;;8.18;4.00;;;;;;;;;;5051619;28;20028;-67
2024/03/11 09:53:54;;;;;;;7.20;4.30;;;;;;;;;;5052460;28;20033;-67
2024/03/11 09:56:21;;;;;;;7.18;3.78;;;;;;;;;;5051976;28;20060;-67
2024/03/11 09:58:50;;;;;;;7.00;4.22;;;;;;;;;;5052418;28;20170;-67
2024/03/11 10:01:16;;;;;;;5.10;3.50;;;;;;;;;;5051703;28;20091;-67
2024/03/11 10:03:42;;;;;;;7.97;4.28;;;;;;;;;;5052172;28;20029;-67
2024/03/11 10:06:09;;;;;;;6.53;3.85;;;;;;;;;;5052289;28;20020;-67
2024/03/11 10:08:37;;;;;;;5.97;3.72;;;;;;;;;;5051984;28;20366;-67
2024/03/11 10:11:13;;;;;;;6.95;3.78;;;;;;;;;;5051378;28;20048;-67
2024/03/11 10:13:39;;;;;;;5.22;3.40;;;;;;;;;;5051973;28;20056;-68
2024/03/11 10:16:18;;;;;;;6.90;3.90;;;;;;;;;;5051950;28;20048;-67
2024/03/11 10:18:53;;;;;;;5.80;3.38;;;;;;;;;;5051764;28;20013;-68
2024/03/11 10:21:19;;;;;;;7.38;4.50;;;;;;;;;;5051154;28;20119;-67
2024/03/11 10:23:48;;;;;;;5.55;3.47;;;;;;;;;;5051618;28;20139;-67
2024/03/11 10:26:18;;;;;;;9.60;3.40;;;;;;;;;;5051924;28;20109;-67
2024/03/11 10:28:49;;;;;;;6.25;4.07;;;;;;;;;;5051658;28;20032;-68
2024/03/11 10:31:23;;;;;;;6.53;4.05;;;;;;;;;;5051503;28;20025;-67
2024/03/11 10:33:53;;;;;;;7.35;3.58;;;;;;;;;;5051927;28;20021;-67
2024/03/11 10:36:20;;;;;;;7.00;3.47;;;;;;;;;;5052108;28;20017;-67
2024/03/11 10:38:47;;;;;;;5.45;3.65;;;;;;;;;;5034047;28;20492;-67
2024/03/11 10:41:20;;;;;;;5.40;3.28;;;;;;;;;;5051190;28;20040;-67
2024/03/11 10:43:48;;;;;;;9.32;4.07;;;;;;;;;;5051944;28;20033;-67
2024/03/11 10:46:18;;;;;;;8.00;3.97;;;;;;;;;;5051705;28;20014;-67
2024/03/11 10:48:46;;;;;;;6.82;4.25;;;;;;;;;;5052002;28;20059;-67
2024/03/11 10:51:13;;;;;;;7.22;3.10;;;;;;;;;;5052094;28;20221;-67
2024/03/11 10:53:42;;;;;;;6.15;3.15;;;;;;;;;;5060383;28;20054;-67
2024/03/11 10:56:17;;;;;;;5.88;3.15;;;;;;;;;;5060817;28;20021;-67
2024/03/11 10:58:44;;;;;;;5.57;3.30;;;;;;;;;;5064050;28;20016;-67
2024/03/11 11:01:10;;;;;;;6.65;3.63;;;;;;;;;;5066301;28;20028;-68
2024/03/11 11:03:39;;;;;;;7.55;3.40;;;;;;;;;;5063167;28;20025;-67
2024/03/11 11:06:09;;;;;;;5.97;3.42;;;;;;;;;;5055801;28;20024;-67
2024/03/11 11:08:37;;;;;;;5.55;3.50;;;;;;;;;;5050522;28;20029;-67
2024/03/11 11:11:04;;;;;;;6.35;3.20;;;;;;;;;;5050229;28;20037;-67
2024/03/11 11:13:31;;;;;;;4.97;3.13;;;;;;;;;;5051219;28;20032;-67
2024/03/11 11:16:03;;;;;;;4.30;2.80;;;;;;;;;;5051106;28;20071;-67
2024/03/11 11:18:31;;;;;;;6.70;3.63;;;;;;;;;;5051151;28;20021;-67
2024/03/11 11:20:57;;;;;;;6.20;3.45;;;;;;;;;;5050202;28;20616;-67
2024/03/11 11:23:24;;;;;;;4.70;3.25;;;;;;;;;;5050854;28;20029;-66
2024/03/11 11:25:51;;;;;;;5.43;3.10;;;;;;;;;;5050500;28;20031;-67
2024/03/11 11:28:37;;;;;;;6.32;3.13;;;;;;;;;;5050735;28;20514;-67
2024/03/11 11:31:11;;;;;;;4.25;3.08;;;;;;;;;;5050045;28;20033;-67
2024/03/11 11:33:56;;;;;;;4.13;2.90;;;;;;;;;;5050714;28;20091;-67
2024/03/11 11:36:39;;;;;;;5.00;3.25;;;;;;;;;;5050674;28;20029;-67
2024/03/11 11:39:17;;;;;;;5.20;3.50;;;;;;;;;;5050676;28;20453;-67
2024/03/11 11:41:46;;;;;;;4.03;2.80;;;;;;;;;;5050122;28;20143;-67
2024/03/11 11:44:36;;;;;;;6.00;3.35;;;;;;;;;;5050751;28;20373;-67
2024/03/11 11:47:03;;;;;;;3.67;2.70;;;;;;;;;;5038674;28;20036;-67
2024/03/11 11:49:34;;;;;;;4.57;2.58;;;;;;;;;;5050918;28;20029;-69
2024/03/11 11:52:00;;;;;;;4.97;3.00;;;;;;;;;;5050215;28;20029;-67
2024/03/11 11:54:28;;;;;;;4.35;3.15;;;;;;;;;;5050676;28;20032;-67
2024/03/11 11:57:00;;;;;;;6.55;3.17;;;;;;;;;;5050815;28;20045;-67
2024/03/11 11:59:27;;;;;;;5.43;3.22;;;;;;;;;;5052777;28;20025;-67
2024/03/11 12:01:53;;;;;;;3.42;2.72;;;;;;;;;;5054095;28;20029;-68
2024/03/11 12:04:20;;;;;;;3.97;2.67;;;;;;;;;;5052948;28;20013;-67
2024/03/11 12:06:53;;;;;;;3.38;2.53;;;;;;;;;;5051747;28;20087;-67
2024/03/11 12:09:20;;;;;;;6.00;3.17;;;;;;;;;;5032749;28;20119;-67
2024/03/11 12:11:49;;;;;;;5.13;3.08;;;;;;;;;;5049182;28;20051;-66
2024/03/11 12:14:15;;;;;;;4.28;2.88;;;;;;;;;;5050007;28;20111;-66
2024/03/11 12:16:45;;;;;;;6.07;2.95;;;;;;;;;;5050010;28;20041;-66
2024/03/11 12:19:12;;;;;;;4.88;2.92;;;;;;;;;;5051420;28;20392;-66
2024/03/11 12:21:42;;;;;;;6.13;3.15;;;;;;;;;;5052947;28;20029;-66
2024/03/11 12:24:14;;;;;;;3.93;2.83;;;;;;;;;;5053601;28;20125;-66
2024/03/11 12:26:42;;;;;;;3.80;2.85;;;;;;;;;;5053427;28;20498;-66
2024/03/11 12:29:08;;;;;;;3.72;2.80;;;;;;;;;;5053667;28;20396;-66
2024/03/11 12:31:35;;;;;;;4.32;2.80;;;;;;;;;;5052907;28;20021;-66
2024/03/11 12:34:06;;;;;;;4.63;3.05;;;;;;;;;;5053538;28;20025;-66
2024/03/11 12:36:33;;;;;;;3.55;2.80;;;;;;;;;;5053525;28;20372;-66
2024/03/11 12:39:00;;;;;;;3.45;2.55;;;;;;;;;;5053179;28;20509;-66
2024/03/11 12:41:41;;;;;;;2.45;2.03;;;;;;;;;;5052688;28;20055;-66
2024/03/11 12:44:11;;;;;;;4.10;2.97;;;;;;;;;;5053380;28;20071;-66
2024/03/11 12:46:37;;;;;;;4.60;2.70;;;;;;;;;;5053404;28;20017;-66
2024/03/11 12:49:04;;;;;;;3.60;2.50;;;;;;;;;;5053303;28;20060;-67
2024/03/11 12:51:30;;;;;;;4.50;2.67;;;;;;;;;;5052854;28;20025;-66
2024/03/11 12:54:08;;;;;;;4.45;3.00;;;;;;;;;;5053347;28;20083;-67
2024/03/11 12:56:36;;;;;;;4.63;2.55;;;;;;;;;;5053101;28;20404;-66
2024/03/11 12:59:05;;;;;;;2.80;2.20;;;;;;;;;;5052841;28;20032;-66
2024/03/11 13:01:31;;;;;;;4.90;3.03;;;;;;;;;;5052624;28;20028;-67
2024/03/11 13:03:57;;;;;;;3.70;2.03;;;;;;;;;;5053531;28;20048;-67
2024/03/11 13:06:26;;;;;;;4.20;2.70;;;;;;;;;;5052852;28;20025;-67
2024/03/11 13:08:53;;;;;;;3.10;2.42;;;;;;;;;;5052687;28;20035;-66
2024/03/11 13:11:19;;;;;;;3.97;2.42;;;;;;;;;;5052443;28;20025;-66
2024/03/11 13:13:48;;;;;;;3.03;2.65;;;;;;;;;;5053216;28;20430;-67
2024/03/11 13:16:16;;;;;;;3.83;2.70;;;;;;;;;;5053279;28;20049;-67
2024/03/11 13:18:44;;;;;;;4.10;2.50;;;;;;;;;;5053427;28;20033;-67
2024/03/11 13:21:10;;;;;;;4.95;2.35;;;;;;;;;;5052620;28;20096;-66
2024/03/11 13:23:42;;;;;;;4.15;2.83;;;;;;;;;;5053404;28;20021;-67
2024/03/11 13:26:12;;;;;;;3.83;2.67;;;;;;;;;;5053215;28;20396;-66
2024/03/11 13:28:38;;;;;;;4.00;2.63;;;;;;;;;;5052957;28;20044;-66
2024/03/11 13:31:08;;;;;;;3.45;2.28;;;;;;;;;;5051673;28;20103;-66
2024/03/11 13:33:36;;;;;;;3.03;2.40;;;;;;;;;;5053012;28;20104;-67
2024/03/11 13:36:04;;;;;;;4.53;2.50;;;;;;;;;;5052730;28;20104;-67
2024/03/11 13:38:30;;;;;;;5.20;2.33;;;;;;;;;;5052520;28;20097;-67
2024/03/11 13:40:56;;;;;;;3.22;2.38;;;;;;;;;;5052618;22;20431;-66
2024/03/11 13:43:23;;;;;;;2.85;2.05;;;;;;;;;;5031403;28;20033;-67
2024/03/11 13:45:50;;;;;;;3.25;2.22;;;;;;;;;;5031461;28;20418;-65
2024/03/11 13:48:19;;;;;;;2.30;1.67;;;;;;;;;;5031473;28;20481;-66
2024/03/11 13:50:48;;;;;;;2.53;2.30;;;;;;;;;;5031172;28;20026;-65
2024/03/11 13:53:14;;;;;;;3.80;2.22;;;;;;;;;;5031311;28;20112;-65
2024/03/11 13:55:40;;;;;;;3.13;2.30;;;;;;;;;;5031491;28;20033;-66
2024/03/11 13:58:07;;;;;;;2.95;1.92;;;;;;;;;;5031206;28;20105;-67
2024/03/11 14:00:34;;;;;;;4.28;2.67;;;;;;;;;;5030800;28;20037;-66
2024/03/11 14:03:04;;;;;;;4.10;2.17;;;;;;;;;;5031207;28;20026;-66
2024/03/11 14:05:30;;;;;;;2.67;2.00;;;;;;;;;;5031612;28;20035;-67
2024/03/11 14:07:56;;;;;;;2.97;1.90;;;;;;;;;;5031280;28;20104;-67
2024/03/11 14:10:24;;;;;;;5.90;2.53;;;;;;;;;;5031093;28;20025;-66
2024/03/11 14:12:50;;;;;;;3.33;2.28;;;;;;;;;;5030309;28;20080;-67
2024/03/11 14:15:16;;;;;;;2.90;1.95;;;;;;;;;;5031662;28;20064;-67
2024/03/11 14:17:48;;;;;;;3.05;2.20;;;;;;;;;;5031389;28;20029;-66
2024/03/11 14:20:24;;;;;;;3.22;2.10;;;;;;;;;;5030889;28;20041;-67
2024/03/11 14:22:53;;;;;;;2.38;1.90;;;;;;;;;;5030497;28;20485;-66
2024/03/11 14:25:20;;;;;;;2.33;2.13;;;;;;;;;;5030908;28;20060;-69
2024/03/11 14:27:51;;;;;;;5.20;1.95;;;;;;;;;;5030739;28;20576;-65
2024/03/11 14:30:19;;;;;;;2.10;1.90;;;;;;;;;;5030462;28;20539;-65
2024/03/11 14:32:46;;;;;;;2.70;2.22;;;;;;;;;;5030118;28;20488;-66
2024/03/11 14:35:16;;;;;;;2.63;1.92;;;;;;;;;;5030759;28;20515;-67
2024/03/11 14:37:42;;;;;;;3.28;1.92;;;;;;;;;;5030552;28;20037;-66
2024/03/11 14:40:25;;;;;;;3.28;2.15;;;;;;;;;;5032541;28;20051;-66